sensor_id;sensor_type;location;lat;lon;timestamp;pressure;altitude;pressure_sealevel;temperature;humidity
70902;BME280;58548;47.210;8.618;2024-01-25T00:00:43;95440.75;;;19.65;41.91
70902;BME280;58548;47.210;8.618;2024-01-25T00:03:09;95447.91;;;19.64;41.38
70902;BME280;58548;47.210;8.618;2024-01-25T00:05:37;95415.41;;;19.43;41.69
70902;BME280;58548;47.210;8.618;2024-01-25T00:08:04;95440.56;;;19.59;41.43
70902;BME280;58548;47.210;8.618;2024-01-25T00:10:29;95416.34;;;19.56;41.37
70902;BME280;58548;47.210;8.618;2024-01-25T00:12:55;95435.41;;;19.71;41.22
70902;BME280;58548;47.210;8.618;2024-01-25T00:15:22;95430.56;;;19.62;41.34
70902;BME280;58548;47.210;8.618;2024-01-25T00:17:48;95420.59;;;19.64;41.44
70902;BME280;58548;47.210;8.618;2024-01-25T00:20:13;95397.06;;;19.49;41.56
70902;BME280;58548;47.210;8.618;2024-01-25T00:22:39;95418.94;;;19.69;41.78
70902;BME280;58548;47.210;8.618;2024-01-25T00:25:05;95429.97;;;19.66;41.61
70902;BME280;58548;47.210;8.618;2024-01-25T00:27:33;95390.88;;;19.55;41.83
70902;BME280;58548;47.210;8.618;2024-01-25T00:29:59;95423.34;;;19.76;41.29
70902;BME280;58548;47.210;8.618;2024-01-25T00:32:24;95411.59;;;19.65;41.45
70902;BME280;58548;47.210;8.618;2024-01-25T00:34:53;95424.00;;;19.71;41.65
70902;BME280;58548;47.210;8.618;2024-01-25T00:37:21;95433.78;;;19.70;41.23
70902;BME280;58548;47.210;8.618;2024-01-25T00:39:48;95423.34;;;19.76;41.76
70902;BME280;58548;47.210;8.618;2024-01-25T00:42:15;95421.50;;;19.83;40.85
70902;BME280;58548;47.210;8.618;2024-01-25T00:44:44;95405.84;;;19.74;41.32
70902;BME280;58548;47.210;8.618;2024-01-25T00:47:13;95410.94;;;19.76;41.61
70902;BME280;58548;47.210;8.618;2024-01-25T00:49:39;95404.47;;;19.65;41.79
70902;BME280;58548;47.210;8.618;2024-01-25T00:52:08;95380.31;;;19.48;41.22
70902;BME280;58548;47.210;8.618;2024-01-25T00:54:34;95409.94;;;19.70;41.95
70902;BME280;58548;47.210;8.618;2024-01-25T00:57:05;95409.34;;;19.68;41.74
70902;BME280;58548;47.210;8.618;2024-01-25T00:59:34;95390.88;;;19.55;41.41
70902;BME280;58548;47.210;8.618;2024-01-25T01:02:04;95413.19;;;19.72;41.21
70902;BME280;58548;47.210;8.618;2024-01-25T01:04:32;95384.72;;;19.61;41.34
70902;BME280;58548;47.210;8.618;2024-01-25T01:06:59;95416.38;;;19.81;41.37
70902;BME280;58548;47.210;8.618;2024-01-25T01:09:25;95389.50;;;19.78;41.30
70902;BME280;58548;47.210;8.618;2024-01-25T01:11:53;95378.13;;;19.70;41.02
70902;BME280;58548;47.210;8.618;2024-01-25T01:14:19;95412.66;;;19.96;41.50
70902;BME280;58548;47.210;8.618;2024-01-25T01:16:45;95406.53;;;19.95;41.05
70902;BME280;58548;47.210;8.618;2024-01-25T01:19:16;95413.47;;;19.96;41.21
70902;BME280;58548;47.210;8.618;2024-01-25T01:21:43;95381.38;;;19.72;41.06
70902;BME280;58548;47.210;8.618;2024-01-25T01:24:10;95400.72;;;19.80;41.53
70902;BME280;58548;47.210;8.618;2024-01-25T01:26:39;95414.94;;;19.85;41.29
70902;BME280;58548;47.210;8.618;2024-01-25T01:29:07;95383.09;;;19.60;41.23
70902;BME280;58548;47.210;8.618;2024-01-25T01:31:36;95413.97;;;19.80;41.26
70902;BME280;58548;47.210;8.618;2024-01-25T01:34:02;95410.94;;;19.76;41.10
70902;BME280;58548;47.210;8.618;2024-01-25T01:36:27;95398.47;;;19.77;41.23
70902;BME280;58548;47.210;8.618;2024-01-25T01:38:54;95399.94;;;19.72;41.52
70902;BME280;58548;47.210;8.618;2024-01-25T01:41:22;95403.41;;;19.73;41.41
70902;BME280;58548;47.210;8.618;2024-01-25T01:43:52;95384.63;;;19.74;41.59
70902;BME280;58548;47.210;8.618;2024-01-25T01:48:58;95396.81;;;19.89;41.65
70902;BME280;58548;47.210;8.618;2024-01-25T01:51:28;95387.84;;;19.90;41.38
70902;BME280;58548;47.210;8.618;2024-01-25T01:54:00;95377.22;;;19.83;41.21
70902;BME280;58548;47.210;8.618;2024-01-25T01:56:29;95389.47;;;19.91;40.95
70902;BME280;58548;47.210;8.618;2024-01-25T01:59:00;95392.09;;;19.91;41.35
70902;BME280;58548;47.210;8.618;2024-01-25T02:01:28;95375.59;;;19.82;41.38
70902;BME280;58548;47.210;8.618;2024-01-25T02:03:57;95395.97;;;19.88;41.27
70902;BME280;58548;47.210;8.618;2024-01-25T02:06:24;95377.88;;;19.79;41.21
70902;BME280;58548;47.210;8.618;2024-01-25T02:08:51;95374.84;;;19.75;41.47
70902;BME280;58548;47.210;8.618;2024-01-25T02:11:22;95358.19;;;19.68;41.43
70902;BME280;58548;47.210;8.618;2024-01-25T02:13:49;95366.19;;;19.86;41.11
70902;BME280;58548;47.210;8.618;2024-01-25T02:16:17;95347.94;;;19.78;41.25
70902;BME280;58548;47.210;8.618;2024-01-25T02:18:44;95352.41;;;19.78;41.17
70902;BME280;58548;47.210;8.618;2024-01-25T02:21:10;95371.91;;;19.83;41.00
70902;BME280;58548;47.210;8.618;2024-01-25T02:23:38;95359.00;;;19.68;41.61
70902;BME280;58548;47.210;8.618;2024-01-25T02:26:04;95360.19;;;19.72;41.71
70902;BME280;58548;47.210;8.618;2024-01-25T02:28:32;95332.41;;;19.50;41.56
70902;BME280;58548;47.210;8.618;2024-01-25T02:31:00;95352.47;;;19.71;41.11
70902;BME280;58548;47.210;8.618;2024-01-25T02:33:27;95327.47;;;19.60;41.14
70902;BME280;58548;47.210;8.618;2024-01-25T02:35:53;95326.59;;;19.66;41.16
70902;BME280;58548;47.210;8.618;2024-01-25T02:38:19;95360.19;;;19.72;41.45
70902;BME280;58548;47.210;8.618;2024-01-25T02:40:44;95350.03;;;19.69;41.01
70902;BME280;58548;47.210;8.618;2024-01-25T02:43:12;95335.00;;;19.63;41.27
70902;BME280;58548;47.210;8.618;2024-01-25T02:45:38;95346.38;;;19.64;41.24
70902;BME280;58548;47.210;8.618;2024-01-25T02:48:05;95320.38;;;19.54;41.24
70902;BME280;58548;47.210;8.618;2024-01-25T02:50:31;95321.56;;;19.58;41.52
70902;BME280;58548;47.210;8.618;2024-01-25T02:52:58;95315.34;;;19.46;41.60
70902;BME280;58548;47.210;8.618;2024-01-25T02:55:27;95326.50;;;19.54;41.34
70902;BME280;58548;47.210;8.618;2024-01-25T02:57:53;95341.97;;;19.57;41.25
70902;BME280;58548;47.210;8.618;2024-01-25T03:00:19;95320.06;;;19.43;42.05
70902;BME280;58548;47.210;8.618;2024-01-25T03:02:47;95326.91;;;19.51;42.08
70902;BME280;58548;47.210;8.618;2024-01-25T03:05:16;95299.72;;;19.37;41.87
70902;BME280;58548;47.210;8.618;2024-01-25T03:07:44;95328.13;;;19.55;42.04
70902;BME280;58548;47.210;8.618;2024-01-25T03:10:12;95318.50;;;19.61;41.48
70902;BME280;58548;47.210;8.618;2024-01-25T03:12:39;95259.31;;;19.17;41.57
70902;BME280;58548;47.210;8.618;2024-01-25T03:15:07;95280.25;;;19.25;41.89
70902;BME280;58548;47.210;8.618;2024-01-25T03:17:36;95305.78;;;19.44;41.50
70902;BME280;58548;47.210;8.618;2024-01-25T03:20:03;95319.34;;;19.55;41.98
70902;BME280;58548;47.210;8.618;2024-01-25T03:22:33;95282.19;;;19.36;41.78
70902;BME280;58548;47.210;8.618;2024-01-25T03:24:59;95318.69;;;19.59;41.37
70902;BME280;58548;47.210;8.618;2024-01-25T03:27:25;95307.41;;;19.46;41.57
70902;BME280;58548;47.210;8.618;2024-01-25T03:29:51;95301.28;;;19.45;41.76
70902;BME280;58548;47.210;8.618;2024-01-25T03:32:19;95312.66;;;19.52;41.82
70902;BME280;58548;47.210;8.618;2024-01-25T03:34:45;95316.31;;;19.51;42.06
70902;BME280;58548;47.210;8.618;2024-01-25T03:37:11;95313.06;;;19.49;41.47
70902;BME280;58548;47.210;8.618;2024-01-25T03:39:41;95297.06;;;19.37;41.79
70902;BME280;58548;47.210;8.618;2024-01-25T03:42:07;95289.13;;;19.37;41.77
70902;BME280;58548;47.210;8.618;2024-01-25T03:44:33;95322.41;;;19.52;41.54
70902;BME280;58548;47.210;8.618;2024-01-25T03:46:59;95306.97;;;19.49;41.50
70902;BME280;58548;47.210;8.618;2024-01-25T03:49:25;95325.25;;;19.57;41.85
70902;BME280;58548;47.210;8.618;2024-01-25T03:51:52;95314.31;;;19.47;41.74
70902;BME280;58548;47.210;8.618;2024-01-25T03:54:19;95324.38;;;19.63;41.14
70902;BME280;58548;47.210;8.618;2024-01-25T03:56:46;95321.31;;;19.66;41.70
70902;BME280;58548;47.210;8.618;2024-01-25T03:59:11;95287.66;;;19.41;41.37
70902;BME280;58548;47.210;8.618;2024-01-25T04:01:45;95317.09;;;19.58;41.16
70902;BME280;58548;47.210;8.618;2024-01-25T04:04:15;95312.22;;;19.55;41.09
70902;BME280;58548;47.210;8.618;2024-01-25T04:06:42;95312.16;;;19.62;41.11
70902;BME280;58548;47.210;8.618;2024-01-25T04:09:12;95327.22;;;19.68;41.39
70902;BME280;58548;47.210;8.618;2024-01-25T04:11:38;95295.13;;;19.51;41.24
70902;BME280;58548;47.210;8.618;2024-01-25T04:14:04;95328.38;;;19.72;41.05
70902;BME280;58548;47.210;8.618;2024-01-25T04:16:31;95323.53;;;19.69;40.69
70902;BME280;58548;47.210;8.618;2024-01-25T04:18:57;95341.84;;;19.71;40.92
70902;BME280;58548;47.210;8.618;2024-01-25T04:21:26;95339.56;;;19.74;40.91
70902;BME280;58548;47.210;8.618;2024-01-25T04:23:58;95341.63;;;19.72;41.22
70902;BME280;58548;47.210;8.618;2024-01-25T04:26:26;95330.88;;;19.67;40.75
70902;BME280;58548;47.210;8.618;2024-01-25T04:28:52;95338.59;;;19.69;41.02
70902;BME280;58548;47.210;8.618;2024-01-25T04:31:21;95338.25;;;19.65;41.28
70902;BME280;58548;47.210;8.618;2024-01-25T04:33:47;95343.41;;;19.79;40.72
70902;BME280;58548;47.210;8.618;2024-01-25T04:36:15;95348.28;;;19.82;40.59
70902;BME280;58548;47.210;8.618;2024-01-25T04:38:45;95321.31;;;19.66;40.48
70902;BME280;58548;47.210;8.618;2024-01-25T04:41:11;95340.56;;;19.80;40.47
70902;BME280;58548;47.210;8.618;2024-01-25T04:43:39;95326.13;;;19.76;40.72
70902;BME280;58548;47.210;8.618;2024-01-25T04:46:05;95358.44;;;19.92;40.45
70902;BME280;58548;47.210;8.618;2024-01-25T04:48:31;95340.13;;;19.83;40.50
70902;BME280;58548;47.210;8.618;2024-01-25T04:50:57;95355.41;;;19.88;40.25
70902;BME280;58548;47.210;8.618;2024-01-25T04:53:28;95341.72;;;19.91;40.12
70902;BME280;58548;47.210;8.618;2024-01-25T04:55:57;95354.78;;;19.86;40.06
70902;BME280;58548;47.210;8.618;2024-01-25T04:58:25;95342.09;;;19.69;40.51
70902;BME280;58548;47.210;8.618;2024-01-25T05:00:51;95368.25;;;19.91;40.06
70902;BME280;58548;47.210;8.618;2024-01-25T05:03:21;95357.69;;;19.78;40.08
70902;BME280;58548;47.210;8.618;2024-01-25T05:05:47;95380.06;;;19.88;40.37
70902;BME280;58548;47.210;8.618;2024-01-25T05:08:15;95356.66;;;19.79;40.28
70902;BME280;58548;47.210;8.618;2024-01-25T05:10:41;95362.75;;;19.86;39.95
70902;BME280;58548;47.210;8.618;2024-01-25T05:13:08;95371.47;;;19.93;39.87
70902;BME280;58548;47.210;8.618;2024-01-25T05:15:39;95380.00;;;19.95;40.43
70902;BME280;58548;47.210;8.618;2024-01-25T05:18:05;95373.09;;;19.94;39.79
70902;BME280;58548;47.210;8.618;2024-01-25T05:20:34;95366.56;;;19.97;40.00
70902;BME280;58548;47.210;8.618;2024-01-25T05:23:05;95356.03;;;19.90;40.24
70902;BME280;58548;47.210;8.618;2024-01-25T05:25:32;95355.22;;;19.83;40.15
70902;BME280;58548;47.210;8.618;2024-01-25T05:28:03;95359.69;;;19.89;40.41
70902;BME280;58548;47.210;8.618;2024-01-25T05:30:32;95346.50;;;19.76;39.92
70902;BME280;58548;47.210;8.618;2024-01-25T05:32:58;95339.09;;;19.59;40.38
70902;BME280;58548;47.210;8.618;2024-01-25T05:35:24;95314.75;;;19.43;40.18
70902;BME280;58548;47.210;8.618;2024-01-25T05:37:53;95352.50;;;19.64;40.38
70902;BME280;58548;47.210;8.618;2024-01-25T05:40:19;95337.75;;;19.43;40.77
70902;BME280;58548;47.210;8.618;2024-01-25T05:42:44;95325.81;;;19.34;40.87
70902;BME280;58548;47.210;8.618;2024-01-25T05:45:11;95321.75;;;19.31;40.77
70902;BME280;58548;47.210;8.618;2024-01-25T05:47:36;95368.88;;;19.54;40.95
70902;BME280;58548;47.210;8.618;2024-01-25T05:50:05;95358.22;;;19.29;40.46
70902;BME280;58548;47.210;8.618;2024-01-25T05:52:34;95363.78;;;19.21;40.70
70902;BME280;58548;47.210;8.618;2024-01-25T05:55:05;95363.50;;;19.36;40.71
70902;BME280;58548;47.210;8.618;2024-01-25T05:57:35;95338.06;;;19.28;40.66
70902;BME280;58548;47.210;8.618;2024-01-25T06:00:05;95346.59;;;19.30;40.92
70902;BME280;58548;47.210;8.618;2024-01-25T06:02:34;95347.72;;;19.16;40.67
70902;BME280;58548;47.210;8.618;2024-01-25T06:05:02;95339.78;;;19.16;41.19
70902;BME280;58548;47.210;8.618;2024-01-25T06:07:29;95346.66;;;19.23;40.91
70902;BME280;58548;47.210;8.618;2024-01-25T06:09:57;95341.41;;;19.17;40.90
70902;BME280;58548;47.210;8.618;2024-01-25T06:12:25;95380.31;;;19.48;41.18
70902;BME280;58548;47.210;8.618;2024-01-25T06:14:51;95363.22;;;19.44;40.25
70902;BME280;58548;47.210;8.618;2024-01-25T06:17:18;95354.66;;;19.49;40.24
70902;BME280;58548;47.210;8.618;2024-01-25T06:19:46;95346.97;;;19.40;40.45
70902;BME280;58548;47.210;8.618;2024-01-25T06:22:16;95382.41;;;19.71;39.88
70902;BME280;58548;47.210;8.618;2024-01-25T06:24:43;95391.97;;;19.72;40.52
70902;BME280;58548;47.210;8.618;2024-01-25T06:27:11;95373.00;;;19.76;40.42
70902;BME280;58548;47.210;8.618;2024-01-25T06:29:37;95361.38;;;19.77;40.30
70902;BME280;58548;47.210;8.618;2024-01-25T06:32:06;95392.25;;;19.96;39.58
70902;BME280;58548;47.210;8.618;2024-01-25T06:34:32;95399.19;;;19.97;39.49
70902;BME280;58548;47.210;8.618;2024-01-25T06:36:58;95398.97;;;19.99;40.23
70902;BME280;58548;47.210;8.618;2024-01-25T06:39:24;95378.44;;;19.87;39.78
70902;BME280;58548;47.210;8.618;2024-01-25T06:41:50;95405.34;;;19.91;39.68
70902;BME280;58548;47.210;8.618;2024-01-25T06:44:16;95402.25;;;19.94;39.75
70902;BME280;58548;47.210;8.618;2024-01-25T06:46:42;95392.53;;;19.88;40.09
70902;BME280;58548;47.210;8.618;2024-01-25T06:49:08;95407.31;;;20.02;39.68
70902;BME280;58548;47.210;8.618;2024-01-25T06:51:36;95393.13;;;19.90;39.96
70902;BME280;58548;47.210;8.618;2024-01-25T06:54:02;95394.91;;;19.96;39.81
70902;BME280;58548;47.210;8.618;2024-01-25T06:56:31;95392.25;;;19.96;39.64
70902;BME280;58548;47.210;8.618;2024-01-25T06:58:59;95397.97;;;19.93;39.54
70902;BME280;58548;47.210;8.618;2024-01-25T07:01:28;95417.03;;;20.09;39.83
70902;BME280;58548;47.210;8.618;2024-01-25T07:03:58;95358.91;;;19.82;39.37
70902;BME280;58548;47.210;8.618;2024-01-25T07:06:24;95385.56;;;19.87;39.36
70902;BME280;58548;47.210;8.618;2024-01-25T07:08:51;95394.38;;;19.81;39.32
70902;BME280;58548;47.210;8.618;2024-01-25T07:11:19;95393.84;;;19.72;39.66
70902;BME280;58548;47.210;8.618;2024-01-25T07:13:47;95396.44;;;19.79;39.85
70902;BME280;58548;47.210;8.618;2024-01-25T07:16:15;95403.78;;;19.77;39.56
70902;BME280;58548;47.210;8.618;2024-01-25T07:18:40;95409.03;;;19.90;40.08
70902;BME280;58548;47.210;8.618;2024-01-25T07:21:11;95408.44;;;19.88;39.71
70902;BME280;58548;47.210;8.618;2024-01-25T07:23:38;95388.59;;;19.65;39.90
70902;BME280;58548;47.210;8.618;2024-01-25T07:26:04;95410.47;;;19.86;39.59
70902;BME280;58548;47.210;8.618;2024-01-25T07:28:31;95418.41;;;19.86;39.82
70902;BME280;58548;47.210;8.618;2024-01-25T07:30:58;95403.78;;;19.77;39.87
70902;BME280;58548;47.210;8.618;2024-01-25T07:33:30;95421.25;;;19.91;39.63
70902;BME280;58548;47.210;8.618;2024-01-25T07:36:02;95403.59;;;19.78;39.63
70902;BME280;58548;47.210;8.618;2024-01-25T07:38:28;95421.69;;;19.88;39.93
70902;BME280;58548;47.210;8.618;2024-01-25T07:40:54;95414.34;;;19.83;39.30
70902;BME280;58548;47.210;8.618;2024-01-25T07:43:23;95410.47;;;19.86;39.10
70902;BME280;58548;47.210;8.618;2024-01-25T07:45:51;95427.38;;;19.92;39.52
70902;BME280;58548;47.210;8.618;2024-01-25T07:48:19;95412.50;;;19.84;39.39
70902;BME280;58548;47.210;8.618;2024-01-25T07:50:45;95426.94;;;19.95;39.82
70902;BME280;58548;47.210;8.618;2024-01-25T07:53:13;95411.88;;;19.88;38.98
70902;BME280;58548;47.210;8.618;2024-01-25T07:55:41;95430.38;;;19.95;39.71
70902;BME280;58548;47.210;8.618;2024-01-25T07:58:11;95420.22;;;19.92;39.88
70902;BME280;58548;47.210;8.618;2024-01-25T08:00:37;95352.59;;;19.51;39.28
70902;BME280;58548;47.210;8.618;2024-01-25T08:03:03;95417.38;;;19.87;39.11
70902;BME280;58548;47.210;8.618;2024-01-25T08:05:29;95405.16;;;19.86;39.55
70902;BME280;58548;47.210;8.618;2024-01-25T08:07:55;95405.34;;;19.91;39.23
70902;BME280;58548;47.210;8.618;2024-01-25T08:10:21;95398.00;;;19.86;39.30
70902;BME280;58548;47.210;8.618;2024-01-25T08:12:46;95406.94;;;19.99;39.64
70902;BME280;58548;47.210;8.618;2024-01-25T08:15:14;95389.44;;;19.84;39.43
70902;BME280;58548;47.210;8.618;2024-01-25T08:17:40;95394.94;;;19.89;39.27
70902;BME280;58548;47.210;8.618;2024-01-25T08:20:07;95426.63;;;20.10;39.31
70902;BME280;58548;47.210;8.618;2024-01-25T08:22:34;95404.91;;;19.94;39.66
70902;BME280;58548;47.210;8.618;2024-01-25T08:25:02;95437.78;;;20.18;39.51
70902;BME280;58548;47.210;8.618;2024-01-25T08:27:34;95397.97;;;19.93;39.09
70902;BME280;58548;47.210;8.618;2024-01-25T08:30:00;95433.69;;;20.16;38.88
70902;BME280;58548;47.210;8.618;2024-01-25T08:32:29;95395.66;;;20.03;39.03
70902;BME280;58548;47.210;8.618;2024-01-25T08:34:55;95438.84;;;20.36;39.49
70902;BME280;58548;47.210;8.618;2024-01-25T08:37:20;95419.50;;;20.29;38.97
70902;BME280;58548;47.210;8.618;2024-01-25T08:39:49;95417.75;;;20.23;39.20
70902;BME280;58548;47.210;8.618;2024-01-25T08:42:18;95442.31;;;20.37;39.19
70902;BME280;58548;47.210;8.618;2024-01-25T08:44:44;95428.31;;;20.29;39.37
70902;BME280;58548;47.210;8.618;2024-01-25T08:47:17;95448.63;;;20.36;39.28
70902;BME280;58548;47.210;8.618;2024-01-25T08:49:46;95437.28;;;20.28;39.49
70902;BME280;58548;47.210;8.618;2024-01-25T08:52:14;95442.59;;;20.28;39.61
70902;BME280;58548;47.210;8.618;2024-01-25T08:54:41;95458.44;;;20.35;39.80
70902;BME280;58548;47.210;8.618;2024-01-25T08:57:07;95431.81;;;20.23;39.20
70902;BME280;58548;47.210;8.618;2024-01-25T08:59:36;95453.44;;;20.45;39.37
70902;BME280;58548;47.210;8.618;2024-01-25T09:02:04;95449.72;;;20.53;38.99
70902;BME280;58548;47.210;8.618;2024-01-25T09:04:31;95413.13;;;20.37;38.93
70902;BME280;58548;47.210;8.618;2024-01-25T09:07:02;95439.91;;;20.54;38.84
70902;BME280;58548;47.210;8.618;2024-01-25T09:09:31;95447.22;;;20.58;39.01
70902;BME280;58548;47.210;8.618;2024-01-25T09:11:56;95445.59;;;20.57;39.07
70902;BME280;58548;47.210;8.618;2024-01-25T09:14:22;95450.03;;;20.63;39.07
70902;BME280;58548;47.210;8.618;2024-01-25T09:16:49;95418.88;;;20.33;39.13
70902;BME280;58548;47.210;8.618;2024-01-25T09:19:15;95425.78;;;20.34;39.41
70902;BME280;58548;47.210;8.618;2024-01-25T09:21:41;95468.84;;;20.62;39.08
70902;BME280;58548;47.210;8.618;2024-01-25T09:24:08;95456.50;;;20.49;39.52
70902;BME280;58548;47.210;8.618;2024-01-25T09:26:34;95468.06;;;20.55;39.50
70902;BME280;58548;47.210;8.618;2024-01-25T09:29:02;95450.59;;;20.47;39.55
70902;BME280;58548;47.210;8.618;2024-01-25T09:31:28;95452.22;;;20.48;39.63
70902;BME280;58548;47.210;8.618;2024-01-25T09:33:54;95459.44;;;20.59;39.47
70902;BME280;58548;47.210;8.618;2024-01-25T09:36:20;95472.09;;;20.64;39.18
70902;BME280;58548;47.210;8.618;2024-01-25T09:38:46;95454.63;;;20.49;39.83
70902;BME280;58548;47.210;8.618;2024-01-25T09:41:15;95447.50;;;20.50;39.79
70902;BME280;58548;47.210;8.618;2024-01-25T09:43:41;95465.34;;;20.61;39.67
70902;BME280;58548;47.210;8.618;2024-01-25T09:46:13;95442.72;;;20.59;39.67
70902;BME280;58548;47.210;8.618;2024-01-25T09:48:39;95473.53;;;20.85;39.98
70902;BME280;58548;47.210;8.618;2024-01-25T09:51:06;95458.84;;;20.83;39.90
70902;BME280;58548;47.210;8.618;2024-01-25T09:53:35;95470.72;;;20.99;39.42
70902;BME280;58548;47.210;8.618;2024-01-25T09:56:10;95479.50;;;20.99;39.30
70902;BME280;58548;47.210;8.618;2024-01-25T09:58:37;95482.16;;;20.99;39.66
70902;BME280;58548;47.210;8.618;2024-01-25T10:01:07;95467.50;;;20.97;39.41
70902;BME280;58548;47.210;8.618;2024-01-25T10:03:36;95488.16;;;21.13;39.64
70902;BME280;58548;47.210;8.618;2024-01-25T10:06:03;95476.59;;;21.07;39.32
70902;BME280;58548;47.210;8.618;2024-01-25T10:08:31;95476.50;;;21.14;39.22
70902;BME280;58548;47.210;8.618;2024-01-25T10:10:57;95491.59;;;21.32;38.90
70902;BME280;58548;47.210;8.618;2024-01-25T10:13:26;95464.16;;;21.20;38.66
70902;BME280;58548;47.210;8.618;2024-01-25T10:15:53;95481.94;;;21.38;38.50
70902;BME280;58548;47.210;8.618;2024-01-25T10:18:22;95490.03;;;21.43;38.60
70902;BME280;58548;47.210;8.618;2024-01-25T10:20:48;95451.03;;;21.25;38.55
70902;BME280;58548;47.210;8.618;2024-01-25T10:23:16;95484.06;;;21.48;38.59
70902;BME280;58548;47.210;8.618;2024-01-25T10:25:44;95477.59;;;21.44;38.54
70902;BME280;58548;47.210;8.618;2024-01-25T10:28:12;95482.22;;;21.48;38.43
70902;BME280;58548;47.210;8.618;2024-01-25T10:30:38;95470.84;;;21.41;38.73
70902;BME280;58548;47.210;8.618;2024-01-25T10:33:09;95467.91;;;21.49;38.79
70902;BME280;58548;47.210;8.618;2024-01-25T10:35:37;95453.28;;;21.40;38.73
70902;BME280;58548;47.210;8.618;2024-01-25T10:38:04;95440.09;;;21.33;38.78
70902;BME280;58548;47.210;8.618;2024-01-25T10:40:30;95468.84;;;21.55;38.11
70902;BME280;58548;47.210;8.618;2024-01-25T10:42:56;95469.38;;;21.64;38.31
70902;BME280;58548;47.210;8.618;2024-01-25T10:45:28;95451.50;;;21.52;38.56
70902;BME280;58548;47.210;8.618;2024-01-25T10:47:58;95475.75;;;21.75;38.87
70902;BME280;58548;47.210;8.618;2024-01-25T10:50:29;95464.34;;;21.74;38.67
70902;BME280;58548;47.210;8.618;2024-01-25T10:52:57;95440.25;;;21.69;38.49
70902;BME280;58548;47.210;8.618;2024-01-25T10:55:24;95459.53;;;21.95;37.96
70902;BME280;58548;47.210;8.618;2024-01-25T10:57:54;95455.97;;;22.01;37.95
70902;BME280;58548;47.210;8.618;2024-01-25T11:00:21;95450.75;;;22.06;38.23
70902;BME280;58548;47.210;8.618;2024-01-25T11:02:51;95402.03;;;21.82;38.19
70902;BME280;58548;47.210;8.618;2024-01-25T11:05:17;95425.91;;;22.01;37.67
70902;BME280;58548;47.210;8.618;2024-01-25T11:07:47;95448.38;;;22.17;37.81
70902;BME280;58548;47.210;8.618;2024-01-25T11:10:20;95448.84;;;22.25;37.99
70902;BME280;58548;47.210;8.618;2024-01-25T11:15:29;95422.69;;;22.22;37.53
70902;BME280;58548;47.210;8.618;2024-01-25T11:17:56;95444.38;;;22.50;37.06
70902;BME280;58548;47.210;8.618;2024-01-25T11:20:27;95437.31;;;22.55;37.03
70902;BME280;58548;47.210;8.618;2024-01-25T11:23:04;95428.50;;;22.55;37.21
70902;BME280;58548;47.210;8.618;2024-01-25T11:25:38;95398.28;;;22.37;36.84
70902;BME280;58548;47.210;8.618;2024-01-25T11:28:05;95402.72;;;22.43;37.04
70902;BME280;58548;47.210;8.618;2024-01-25T11:30:36;95390.34;;;22.49;37.16
70902;BME280;58548;47.210;8.618;2024-01-25T11:33:11;95394.59;;;22.62;36.78
70902;BME280;58548;47.210;8.618;2024-01-25T11:35:39;95407.31;;;22.84;37.15
70902;BME280;58548;47.210;8.618;2024-01-25T11:38:10;95405.19;;;22.98;37.11
70902;BME280;58548;47.210;8.618;2024-01-25T11:40:39;95388.03;;;23.06;36.85
70902;BME280;58548;47.210;8.618;2024-01-25T11:43:05;95348.06;;;23.06;36.58
70902;BME280;58548;47.210;8.618;2024-01-25T11:45:38;95399.03;;;23.67;36.22
70902;BME280;58548;47.210;8.618;2024-01-25T11:48:10;95373.78;;;23.70;36.26
70902;BME280;58548;47.210;8.618;2024-01-25T11:50:39;95393.16;;;24.11;35.42
70902;BME280;58548;47.210;8.618;2024-01-25T11:53:05;95370.66;;;24.24;34.94
70902;BME280;58548;47.210;8.618;2024-01-25T11:55:36;95363.25;;;24.48;34.87
70902;BME280;58548;47.210;8.618;2024-01-25T11:58:02;95376.59;;;24.88;34.21
70902;BME280;58548;47.210;8.618;2024-01-25T12:00:29;95386.19;;;25.06;33.37
70902;BME280;58548;47.210;8.618;2024-01-25T12:02:58;95370.66;;;25.30;33.20
70902;BME280;58548;47.210;8.618;2024-01-25T12:05:24;95384.25;;;25.73;32.55
70902;BME280;58548;47.210;8.618;2024-01-25T12:07:51;95367.25;;;25.89;32.44
70902;BME280;58548;47.210;8.618;2024-01-25T12:10:17;95376.97;;;26.33;33.02
70902;BME280;58548;47.210;8.618;2024-01-25T12:12:43;95361.84;;;26.55;30.51
70902;BME280;58548;47.210;8.618;2024-01-25T12:15:12;95369.81;;;26.98;30.64
70902;BME280;58548;47.210;8.618;2024-01-25T12:17:38;95368.25;;;27.12;30.76
70902;BME280;58548;47.210;8.618;2024-01-25T12:20:11;95374.47;;;27.28;30.11
70902;BME280;58548;47.210;8.618;2024-01-25T12:22:37;95348.75;;;27.22;29.46
70902;BME280;58548;47.210;8.618;2024-01-25T12:25:07;95362.44;;;27.31;29.51
70902;BME280;58548;47.210;8.618;2024-01-25T12:27:34;95351.13;;;27.23;29.47
70902;BME280;58548;47.210;8.618;2024-01-25T12:30:05;95355.97;;;27.21;29.31
70902;BME280;58548;47.210;8.618;2024-01-25T12:32:32;95361.31;;;27.21;29.29
70902;BME280;58548;47.210;8.618;2024-01-25T12:35:00;95345.19;;;27.06;29.01
70902;BME280;58548;47.210;8.618;2024-01-25T12:37:28;95345.19;;;27.01;29.05
70902;BME280;58548;47.210;8.618;2024-01-25T12:39:56;95358.31;;;26.97;29.11
70902;BME280;58548;47.210;8.618;2024-01-25T12:42:25;95356.84;;;26.79;29.85
70902;BME280;58548;47.210;8.618;2024-01-25T12:44:54;95342.28;;;26.59;29.47
70902;BME280;58548;47.210;8.618;2024-01-25T12:47:22;95340.34;;;26.44;29.43
70902;BME280;58548;47.210;8.618;2024-01-25T12:49:51;95350.19;;;26.33;30.22
70902;BME280;58548;47.210;8.618;2024-01-25T12:52:16;95337.13;;;26.10;30.18
70902;BME280;58548;47.210;8.618;2024-01-25T12:54:45;95349.44;;;26.06;29.78
70902;BME280;58548;47.210;8.618;2024-01-25T12:57:13;95352.53;;;25.92;30.16
70902;BME280;58548;47.210;8.618;2024-01-25T12:59:40;95347.34;;;25.80;30.50
70902;BME280;58548;47.210;8.618;2024-01-25T13:02:09;95343.03;;;25.74;30.55
70902;BME280;58548;47.210;8.618;2024-01-25T13:04:35;95343.22;;;25.67;29.75
70902;BME280;58548;47.210;8.618;2024-01-25T13:07:10;95344.00;;;25.63;30.44